Time;durP1;ratioP1;P1;durP2;ratioP2;P2;SDS_P1;SDS_P2;PMS_P1;PMS_P2;Temp;Humidity;BMP_temperature;BMP_pressure;BME280_temperature;BME280_humidity;BME280_pressure;Samples;Min_cycle;Max_cycle;Signal;HPM_P1;HPM_P2
2021/06/20 00:00:20;;;;;;;;;16.25;13.00;;;;;18.77;87.76;99452.97;3587572;39;13342;-59
2021/06/20 00:02:49;;;;;;;;;14.50;12.00;;;;;18.70;87.78;99446.38;3587273;40;13045;-59
2021/06/20 00:05:24;;;;;;;;;12.50;12.50;;;;;18.48;89.06;99444.06;3590857;40;13722;-59
2021/06/20 00:07:52;;;;;;;;;17.25;14.75;;;;;18.65;88.80;99443.25;3587386;39;13335;-59
2021/06/20 00:10:26;;;;;;;;;15.75;14.50;;;;;18.67;88.74;99443.97;3587009;40;14188;-59
2021/06/20 00:12:57;;;;;;;;;17.75;13.00;;;;;18.89;87.21;99444.59;3587841;40;13950;-59
2021/06/20 00:15:28;;;;;;;;;18.25;13.00;;;;;18.95;86.61;99433.91;3589680;39;13503;-59
2021/06/20 00:17:57;;;;;;;;;17.25;14.50;;;;;18.61;87.82;99437.25;3586791;40;13520;-61
2021/06/20 00:20:29;;;;;;;;;14.25;11.50;;;;;18.81;87.30;99437.19;3593932;40;13963;-59
2021/06/20 00:22:57;;;;;;;;;14.25;12.25;;;;;18.95;86.32;99433.91;3587424;40;13052;-59
2021/06/20 00:25:25;;;;;;;;;14.50;13.75;;;;;18.93;85.45;99438.69;3590609;39;13331;-59
2021/06/20 00:27:55;;;;;;;;;16.50;15.00;;;;;18.90;86.04;99441.69;3586900;40;13043;-59
2021/06/20 00:30:28;;;;;;;;;19.25;15.00;;;;;18.83;86.91;99429.72;3586945;40;14195;-59
2021/06/20 00:32:56;;;;;;;;;13.75;13.75;;;;;19.04;86.32;99432.16;3589056;40;13364;-59
2021/06/20 00:35:24;;;;;;;;;17.25;14.00;;;;;18.96;86.32;99429.34;3591916;39;13310;-59
2021/06/20 00:37:52;;;;;;;;;12.50;11.50;;;;;19.00;86.00;99425.31;3587365;39;13529;-59
2021/06/20 00:40:20;;;;;;;;;14.50;12.00;;;;;19.06;85.63;99425.56;3590712;40;13831;-59
2021/06/20 00:42:49;;;;;;;;;15.50;12.00;;;;;19.30;84.58;99426.78;3586616;40;13356;-59
2021/06/20 00:45:21;;;;;;;;;11.50;10.00;;;;;19.10;85.97;99436.13;3590565;40;14005;-59
2021/06/20 00:47:53;;;;;;;;;17.75;14.00;;;;;19.01;86.36;99436.03;3588418;40;14498;-59
2021/06/20 00:50:21;;;;;;;;;14.25;12.75;;;;;18.70;86.18;99437.38;3579532;40;13967;-59
2021/06/20 00:52:49;;;;;;;;;14.50;11.75;;;;;18.98;85.60;99432.75;3591599;39;13526;-58
2021/06/20 00:55:16;;;;;;;;;13.50;12.75;;;;;18.84;85.43;99428.72;3591708;40;13009;-59
2021/06/20 00:57:44;;;;;;;;;14.75;12.00;;;;;18.72;85.67;99432.63;3586757;40;13443;-59
2021/06/20 01:00:12;;;;;;;;;12.75;11.00;;;;;18.79;86.34;99423.72;3588592;40;13324;-59
2021/06/20 01:02:44;;;;;;;;;13.50;12.00;;;;;19.09;83.90;99429.84;3586396;40;13326;-59
2021/06/20 01:05:12;;;;;;;;;13.25;13.25;;;;;18.93;84.20;99419.63;3588093;40;12997;-59
2021/06/20 01:07:40;;;;;;;;;13.25;12.50;;;;;18.16;87.41;99418.19;3593045;39;13069;-59
2021/06/20 01:10:10;;;;;;;;;17.75;14.00;;;;;18.61;87.01;99407.34;3593735;39;13407;-59
2021/06/20 01:12:39;;;;;;;;;17.50;13.75;;;;;18.10;88.40;99405.19;3586595;40;14514;-59
2021/06/20 01:15:10;;;;;;;;;14.75;14.25;;;;;18.49;86.98;99400.44;3586688;40;14168;-59
2021/06/20 01:17:38;;;;;;;;;18.00;12.75;;;;;18.49;86.45;99395.00;3586735;40;13967;-59
2021/06/20 01:20:10;;;;;;;;;12.25;11.50;;;;;18.64;86.69;99387.16;3586664;40;13994;-59
2021/06/20 01:22:39;;;;;;;;;19.75;14.25;;;;;18.79;86.21;99401.13;3590469;40;13976;-59
2021/06/20 01:25:29;;;;;;;;;13.75;11.50;;;;;19.01;84.66;99399.78;3587108;39;13989;-59
2021/06/20 01:28:06;;;;;;;;;15.00;12.75;;;;;18.67;86.40;99403.19;3588464;40;13383;-59
2021/06/20 01:30:37;;;;;;;;;12.00;10.25;;;;;18.56;87.61;99406.97;3585623;40;14186;-59
2021/06/20 01:33:08;;;;;;;;;15.25;12.00;;;;;18.75;86.05;99405.16;3586317;40;14064;-59
2021/06/20 01:35:36;;;;;;;;;15.75;11.75;;;;;18.50;87.91;99402.13;3586946;40;13943;-59
2021/06/20 01:38:07;;;;;;;;;15.75;14.50;;;;;18.33;88.15;99411.09;3586489;40;14198;-60
2021/06/20 01:40:35;;;;;;;;;13.50;11.25;;;;;18.49;87.04;99405.88;3590072;40;14649;-60
2021/06/20 01:43:03;;;;;;;;;20.50;14.50;;;;;18.53;86.10;99409.97;3586516;40;14028;-60
2021/06/20 01:45:31;;;;;;;;;16.00;12.50;;;;;18.08;87.52;99410.78;3589039;40;14174;-60
2021/06/20 01:47:59;;;;;;;;;16.00;16.00;;;;;17.15;90.21;99393.41;3586541;39;14020;-60
2021/06/20 01:50:30;;;;;;;;;14.25;13.00;;;;;17.27;90.35;99386.81;3589748;40;14221;-59
2021/06/20 01:53:07;;;;;;;;;17.75;14.50;;;;;17.29;90.06;99387.50;3589225;40;13952;-59
2021/06/20 01:55:36;;;;;;;;;17.00;15.25;;;;;17.20;90.91;99380.25;3593481;40;13966;-59
2021/06/20 01:58:06;;;;;;;;;16.00;13.50;;;;;17.25;90.96;99383.38;3589346;40;14534;-59
2021/06/20 02:00:36;;;;;;;;;16.50;15.25;;;;;17.59;90.10;99380.19;3588754;39;14163;-59
2021/06/20 02:03:22;;;;;;;;;16.50;15.00;;;;;17.77;89.78;99370.28;3594505;40;13972;-59
2021/06/20 02:05:51;;;;;;;;;14.75;14.00;;;;;17.93;88.90;99382.38;3587775;40;13961;-60
2021/06/20 02:08:20;;;;;;;;;17.00;12.50;;;;;17.85;88.55;99380.44;3592166;39;14192;-59
2021/06/20 02:10:53;;;;;;;;;16.75;14.50;;;;;18.29;86.88;99383.34;3592164;40;14712;-60
2021/06/20 02:13:27;;;;;;;;;15.50;14.00;;;;;18.10;87.02;99384.31;3592218;39;13991;-60
2021/06/20 02:15:56;;;;;;;;;16.75;14.75;;;;;17.99;88.08;99384.50;3588164;40;13982;-59
2021/06/20 02:18:23;;;;;;;;;16.25;15.00;;;;;18.22;87.81;99395.88;3589989;40;13932;-59
2021/06/20 02:20:51;;;;;;;;;16.50;16.00;;;;;18.02;88.51;99389.66;3591447;40;14172;-60
2021/06/20 02:23:18;;;;;;;;;14.75;14.75;;;;;18.15;88.45;99386.59;3590169;40;13930;-60
2021/06/20 02:25:46;;;;;;;;;19.25;17.25;;;;;18.04;88.94;99384.94;3587547;39;13967;-60
2021/06/20 02:28:13;;;;;;;;;16.75;14.25;;;;;18.14;89.04;99380.31;3587786;40;13979;-59
2021/06/20 02:30:40;;;;;;;;;20.50;16.50;;;;;18.13;89.32;99386.72;3587542;40;14531;-59
2021/06/20 02:33:08;;;;;;;;;17.00;16.25;;;;;17.64;90.56;99388.75;3587321;40;14100;-60
2021/06/20 02:35:35;;;;;;;;;21.25;14.50;;;;;17.94;89.73;99375.97;3592028;40;13979;-60
2021/06/20 02:38:03;;;;;;;;;19.00;17.50;;;;;17.86;90.38;99376.69;3591047;40;13988;-60
2021/06/20 02:40:30;;;;;;;;;21.25;16.50;;;;;17.44;90.97;99371.63;3587365;40;13969;-60
2021/06/20 02:42:57;;;;;;;;;20.25;18.00;;;;;17.33;91.67;99374.53;3587686;40;14234;-59
2021/06/20 02:45:25;;;;;;;;;14.25;12.75;;;;;17.15;91.27;99368.97;3589440;40;14083;-59
2021/06/20 02:47:53;;;;;;;;;18.25;14.50;;;;;17.13;91.14;99370.13;3591097;39;13946;-59
2021/06/20 02:50:21;;;;;;;;;16.25;14.75;;;;;17.10;90.58;99373.97;3594061;40;14573;-60
2021/06/20 02:52:48;;;;;;;;;16.50;14.50;;;;;17.24;90.27;99370.81;3587785;39;14033;-60
2021/06/20 02:55:16;;;;;;;;;17.25;14.25;;;;;17.19;90.27;99372.25;3588294;40;13970;-60
2021/06/20 02:57:44;;;;;;;;;16.00;15.00;;;;;17.27;90.46;99375.09;3587578;40;14061;-60
2021/06/20 03:00:12;;;;;;;;;19.25;15.50;;;;;17.12;90.83;99374.69;3587329;40;14048;-59
2021/06/20 03:02:40;;;;;;;;;19.00;16.00;;;;;17.09;92.14;99375.00;3591115;40;14048;-59
2021/06/20 03:05:09;;;;;;;;;19.75;15.50;;;;;17.26;91.72;99379.66;3588482;40;14067;-60
2021/06/20 03:07:36;;;;;;;;;17.25;16.00;;;;;17.20;89.44;99374.81;3587907;40;13964;-60
2021/06/20 03:10:05;;;;;;;;;17.50;15.50;;;;;17.31;88.57;99379.25;3589759;40;14043;-59
2021/06/20 03:12:33;;;;;;;;;18.00;15.25;;;;;17.59;88.33;99380.19;3592688;39;14094;-59
2021/06/20 03:15:00;;;;;;;;;17.50;14.75;;;;;17.25;89.63;99377.97;3590514;40;13981;-60
2021/06/20 03:17:28;;;;;;;;;18.00;15.00;;;;;17.19;90.98;99372.25;3587680;40;13962;-59
2021/06/20 03:19:55;;;;;;;;;17.75;15.50;;;;;17.14;92.47;99361.84;3589766;39;14153;-59
2021/06/20 03:22:23;;;;;;;;;17.00;15.50;;;;;17.22;91.88;99367.41;3592210;40;14247;-60
2021/06/20 03:24:51;;;;;;;;;16.25;13.50;;;;;17.37;90.83;99354.22;3591209;39;13946;-59
2021/06/20 03:27:20;;;;;;;;;14.50;13.75;;;;;17.64;88.73;99361.59;3590388;40;13963;-60
2021/06/20 03:29:49;;;;;;;;;18.00;15.75;;;;;17.49;90.08;99363.06;3587134;40;13974;-60
2021/06/20 03:32:19;;;;;;;;;15.25;15.25;;;;;17.74;89.59;99365.13;3587196;40;13950;-61
2021/06/20 03:34:47;;;;;;;;;17.00;16.75;;;;;17.97;88.50;99373.78;3591876;40;14739;-59
2021/06/20 03:37:15;;;;;;;;;20.25;16.75;;;;;18.10;87.88;99368.00;3587376;40;14082;-60
2021/06/20 03:39:44;;;;;;;;;18.25;16.50;;;;;18.35;86.68;99371.00;3595536;40;13990;-60
2021/06/20 03:42:11;;;;;;;;;19.00;18.00;;;;;18.62;85.94;99373.72;3590923;40;13991;-60
2021/06/20 03:44:38;;;;;;;;;16.50;15.00;;;;;18.68;86.32;99374.97;3588725;40;14024;-60
2021/06/20 03:47:06;;;;;;;;;13.25;12.25;;;;;18.48;86.04;99385.09;3586914;40;14169;-59
2021/06/20 03:49:33;;;;;;;;;19.50;16.75;;;;;18.17;86.97;99382.72;3589657;40;13974;-60
2021/06/20 03:52:01;;;;;;;;;16.25;16.25;;;;;18.12;87.25;99381.47;3588377;39;14017;-60
2021/06/20 03:54:29;;;;;;;;;17.50;15.50;;;;;18.40;85.28;99401.31;3589315;40;14006;-60
2021/06/20 03:56:56;;;;;;;;;17.00;16.00;;;;;18.27;86.11;99400.81;3590943;39;14188;-59
2021/06/20 03:59:25;;;;;;;;;17.75;14.50;;;;;18.01;86.89;99406.97;3590800;40;13960;-60
2021/06/20 04:01:54;;;;;;;;;18.75;16.75;;;;;18.35;85.46;99409.94;3587143;40;13985;-60
2021/06/20 04:04:22;;;;;;;;;16.25;16.25;;;;;18.34;86.10;99410.94;3589972;40;13970;-60
2021/06/20 04:06:50;;;;;;;;;18.50;17.75;;;;;18.63;84.89;99415.34;3589788;39;13992;-59
2021/06/20 04:09:18;;;;;;;;;21.00;17.25;;;;;18.41;87.52;99416.66;3587346;40;13983;-59
2021/06/20 04:11:47;;;;;;;;;18.75;17.00;;;;;18.41;87.84;99427.53;3589475;39;14208;-59
2021/06/20 04:14:15;;;;;;;;;18.25;16.50;;;;;18.18;87.90;99427.03;3589042;40;13975;-59
2021/06/20 04:16:43;;;;;;;;;22.00;19.50;;;;;17.75;89.88;99429.31;3587396;40;14166;-61
2021/06/20 04:19:12;;;;;;;;;21.00;17.75;;;;;17.99;89.21;99433.41;3586684;40;14079;-59
2021/06/20 04:21:39;;;;;;;;;18.00;17.75;;;;;18.13;88.21;99422.06;3588964;40;14220;-59
2021/06/20 04:24:08;;;;;;;;;19.00;14.50;;;;;18.10;88.59;99422.34;3588192;39;13989;-59
2021/06/20 04:26:36;;;;;;;;;18.75;16.75;;;;;18.46;87.40;99419.75;3587091;40;14005;-59
2021/06/20 04:29:03;;;;;;;;;18.50;16.50;;;;;18.73;86.48;99415.31;3586555;40;13970;-59
2021/06/20 04:31:31;;;;;;;;;23.00;19.00;;;;;18.71;86.11;99420.88;3587716;40;14003;-59
2021/06/20 04:33:58;;;;;;;;;20.50;18.00;;;;;18.53;87.02;99417.28;3593953;40;13956;-59
2021/06/20 04:36:25;;;;;;;;;18.00;16.50;;;;;18.65;87.18;99426.94;3588367;39;14013;-59
2021/06/20 04:38:53;;;;;;;;;18.50;18.50;;;;;19.21;84.76;99435.88;3593640;40;13998;-60
2021/06/20 04:41:21;;;;;;;;;17.00;15.25;;;;;19.30;84.86;99443.97;3587558;39;13988;-59
2021/06/20 04:46:36;;;;;;;;;24.00;17.75;;;;;19.32;84.81;99445.66;3598272;39;13337;-59
2021/06/20 04:49:11;;;;;;;;;18.25;17.00;;;;;19.42;85.75;99441.84;3593932;39;14508;-59
2021/06/20 04:51:41;;;;;;;;;18.00;17.50;;;;;19.36;85.05;99447.94;3590752;40;13997;-59
2021/06/20 04:54:11;;;;;;;;;16.75;16.00;;;;;19.30;83.92;99440.41;3590773;40;13423;-61
2021/06/20 04:56:39;;;;;;;;;15.50;15.00;;;;;19.59;85.20;99441.97;3586750;39;13992;-59
2021/06/20 04:59:08;;;;;;;;;18.25;17.25;;;;;19.66;83.88;99438.50;3589200;40;13513;-59
2021/06/20 05:01:37;;;;;;;;;17.00;17.00;;;;;19.88;83.68;99442.59;3589743;39;13219;-59
2021/06/20 05:04:07;;;;;;;;;16.50;15.00;;;;;19.86;83.12;99443.75;3586757;40;12942;-60
2021/06/20 05:06:35;;;;;;;;;16.25;15.25;;;;;19.92;82.55;99454.00;3586456;40;13604;-60
2021/06/20 05:09:04;;;;;;;;;16.00;14.50;;;;;20.08;81.65;99447.81;3586777;40;13215;-59
2021/06/20 05:11:31;;;;;;;;;20.25;14.75;;;;;20.08;81.53;99453.25;3589414;40;12790;-59
2021/06/20 05:13:59;;;;;;;;;21.25;18.00;;;;;19.98;81.32;99449.78;3590203;39;13197;-60
2021/06/20 05:16:26;;;;;;;;;23.50;20.25;;;;;20.34;80.79;99454.06;3587847;39;13977;-59
2021/06/20 05:18:54;;;;;;;;;23.50;20.50;;;;;20.36;81.82;99446.59;3586741;40;13268;-59
2021/06/20 05:21:21;;;;;;;;;20.00;18.75;;;;;20.41;81.60;99451.56;3589504;40;13417;-59
2021/06/20 05:23:48;;;;;;;;;21.75;19.00;;;;;20.48;80.62;99454.47;3586224;40;13065;-60
2021/06/20 05:26:16;;;;;;;;;24.00;19.75;;;;;20.55;80.58;99450.13;3586606;40;13622;-60
2021/06/20 05:28:43;;;;;;;;;20.00;19.00;;;;;20.78;79.17;99455.84;3586412;40;12848;-59
2021/06/20 05:31:11;;;;;;;;;23.00;20.75;;;;;21.55;76.28;99458.38;3586540;40;13031;-60
2021/06/20 05:33:38;;;;;;;;;25.50;20.75;;;;;21.03;77.41;99454.00;3590967;40;12827;-59
2021/06/20 05:36:06;;;;;;;;;20.25;18.00;;;;;21.22;77.71;99461.03;3590079;40;12982;-58
2021/06/20 05:38:33;;;;;;;;;19.25;16.75;;;;;21.07;77.98;99449.94;3590568;39;12255;-60
2021/06/20 05:41:01;;;;;;;;;18.75;17.75;;;;;21.55;77.24;99461.97;3587820;40;12526;-60
2021/06/20 05:43:28;;;;;;;;;14.25;14.25;;;;;22.33;73.38;99455.91;3588021;40;12406;-60
2021/06/20 05:45:56;;;;;;;;;17.50;13.75;;;;;21.96;74.24;99456.47;3590345;40;12042;-58
2021/06/20 05:48:23;;;;;;;;;13.25;13.25;;;;;22.18;74.49;99454.88;3588445;40;11715;-61
2021/06/20 05:50:51;;;;;;;;;12.50;12.00;;;;;22.67;72.66;99452.00;3595532;39;11929;-60
2021/06/20 05:53:18;;;;;;;;;17.00;14.75;;;;;22.50;71.63;99453.94;3590402;39;11146;-61
2021/06/20 05:55:46;;;;;;;;;12.75;12.75;;;;;22.34;73.69;99463.06;3592283;40;11282;-60
2021/06/20 05:58:13;;;;;;;;;18.25;15.00;;;;;22.83;72.33;99470.22;3586292;40;11439;-60
2021/06/20 06:00:40;;;;;;;;;15.50;14.25;;;;;23.05;71.55;99474.06;3596342;39;11359;-60
2021/06/20 06:03:08;;;;;;;;;15.25;14.00;;;;;22.64;72.62;99465.16;3588103;40;11007;-59
2021/06/20 06:05:36;;;;;;;;;15.25;12.00;;;;;22.76;71.34;99461.03;3596723;40;11148;-59
2021/06/20 06:08:03;;;;;;;;;15.00;13.50;;;;;23.15;71.02;99468.38;3587688;40;11032;-59
2021/06/20 06:10:31;;;;;;;;;14.00;13.00;;;;;22.40;72.20;99464.22;3588650;40;11317;-59
2021/06/20 06:12:59;;;;;;;;;13.75;12.00;;;;;22.34;71.73;99462.22;3591050;40;10709;-60
2021/06/20 06:15:31;;;;;;;;;12.50;12.25;;;;;21.57;75.11;99472.72;3589981;40;10592;-61
2021/06/20 06:17:59;;;;;;;;;16.50;13.00;;;;;21.55;74.82;99470.16;3594953;40;11120;-61
2021/06/20 06:20:28;;;;;;;;;12.00;12.00;;;;;21.44;75.67;99476.81;3591043;40;11339;-61
2021/06/20 06:22:58;;;;;;;;;15.00;14.50;;;;;21.96;74.43;99472.88;3592043;39;12112;-61
2021/06/20 06:25:27;;;;;;;;;13.00;12.00;;;;;21.75;75.06;99487.06;3587918;40;12379;-61
2021/06/20 06:27:54;;;;;;;;;17.50;15.50;;;;;21.96;75.84;99485.66;3587671;40;11461;-61
2021/06/20 06:30:23;;;;;;;;;12.75;12.00;;;;;22.12;74.73;99482.94;3592171;40;11890;-61
2021/06/20 06:32:51;;;;;;;;;15.00;14.25;;;;;22.29;73.86;99478.28;3592054;40;11779;-61
2021/06/20 06:35:18;;;;;;;;;14.75;14.25;;;;;22.14;73.88;99487.19;3591675;40;11562;-61
2021/06/20 06:37:49;;;;;;;;;15.75;14.50;;;;;21.67;75.37;99487.06;3588168;40;11423;-61
2021/06/20 06:40:16;;;;;;;;;15.75;13.50;;;;;22.95;72.19;99485.22;3590111;40;11189;-61
2021/06/20 06:42:44;;;;;;;;;15.50;14.25;;;;;23.52;67.94;99494.16;3593915;40;11329;-59
2021/06/20 06:45:12;;;;;;;;;13.75;13.25;;;;;23.65;68.27;99491.66;3587630;40;11149;-60
2021/06/20 06:47:40;;;;;;;;;12.33;10.33;;;;;24.45;63.53;99493.81;3592404;40;11014;-59
2021/06/20 06:50:08;;;;;;;;;21.67;13.67;;;;;24.59;63.84;99494.84;3589514;40;10191;-61
2021/06/20 06:52:37;;;;;;;;;11.00;9.67;;;;;25.48;60.98;99500.22;3587318;40;10697;-59
2021/06/20 06:55:09;;;;;;;;;14.67;12.00;;;;;25.61;60.96;99489.34;3587508;40;9922;-59
2021/06/20 06:57:38;;;;;;;;;13.00;11.00;;;;;24.34;65.05;99490.69;3590357;40;9902;-60
2021/06/20 07:00:11;;;;;;;;;12.00;9.00;;;;;25.70;61.31;99483.69;3586522;40;9822;-60
2021/06/20 07:02:39;;;;;;;;;9.00;9.00;;;;;26.23;59.67;99481.44;3587945;40;10012;-59
2021/06/20 07:05:07;;;;;;;;;14.25;11.75;;;;;26.88;57.05;99487.53;3591708;40;9893;-58
2021/06/20 07:07:34;;;;;;;;;9.25;9.25;;;;;27.16;55.24;99498.47;3587548;39;9948;-59
2021/06/20 07:10:03;;;;;;;;;9.75;9.75;;;;;27.19;55.79;99498.09;3587060;40;9960;-58
2021/06/20 07:12:32;;;;;;;;;7.50;7.50;;;;;25.96;58.65;99486.75;3594657;39;10351;-59
2021/06/20 07:15:04;;;;;;;;;9.00;9.00;;;;;26.63;55.15;99485.31;3587021;40;10491;-59
2021/06/20 07:17:33;;;;;;;;;10.00;9.75;;;;;26.58;56.12;99490.56;3586446;40;10105;-59
2021/06/20 07:20:04;;;;;;;;;10.25;9.00;;;;;26.57;56.70;99485.25;3591755;40;9854;-59
2021/06/20 07:22:31;;;;;;;;;9.25;8.75;;;;;26.96;55.91;99475.50;3588701;40;9808;-59
2021/06/20 07:24:58;;;;;;;;;10.50;8.75;;;;;26.26;58.26;99475.53;3587505;40;9831;-59
2021/06/20 07:27:25;;;;;;;;;10.50;8.75;;;;;25.19;61.75;99469.03;3587278;40;9791;-58
2021/06/20 07:29:53;;;;;;;;;8.00;7.25;;;;;25.86;59.94;99477.09;3591623;40;10431;-59
2021/06/20 07:32:20;;;;;;;;;12.25;10.00;;;;;27.15;56.13;99475.56;3587396;40;9778;-59
2021/06/20 07:34:51;;;;;;;;;9.50;9.00;;;;;27.14;55.43;99478.53;3587161;40;9844;-58
2021/06/20 07:37:18;;;;;;;;;7.50;7.25;;;;;26.54;59.10;99474.66;3587583;40;9741;-59
2021/06/20 07:39:45;;;;;;;;;8.25;7.75;;;;;26.97;57.05;99471.69;3587205;40;9811;-59
2021/06/20 07:42:13;;;;;;;;;7.75;7.25;;;;;27.78;54.79;99479.97;3587341;40;9883;-60
2021/06/20 07:44:41;;;;;;;;;11.25;11.25;;;;;26.16;59.58;99475.03;3587216;40;10313;-58
2021/06/20 07:47:08;;;;;;;;;10.75;9.00;;;;;27.61;55.63;99476.75;3587239;40;9753;-59
2021/06/20 07:49:35;;;;;;;;;10.50;9.75;;;;;27.88;54.81;99477.66;3587060;40;9830;-59
2021/06/20 07:52:03;;;;;;;;;8.50;7.50;;;;;27.67;54.92;99475.91;3587824;40;9937;-59
2021/06/20 07:54:30;;;;;;;;;11.50;9.00;;;;;27.84;54.84;99478.31;3591260;40;9750;-59
2021/06/20 07:56:58;;;;;;;;;11.50;7.50;;;;;27.53;55.64;99468.69;3589634;39;9781;-60
2021/06/20 07:59:25;;;;;;;;;5.50;5.50;;;;;28.14;54.52;99471.28;3594071;40;9931;-59
2021/06/20 08:01:52;;;;;;;;;9.00;9.00;;;;;27.51;55.77;99462.53;3586864;40;9757;-60
2021/06/20 08:04:19;;;;;;;;;7.75;7.75;;;;;27.96;54.53;99466.44;3586515;40;9859;-59
2021/06/20 08:06:47;;;;;;;;;11.00;8.75;;;;;27.43;56.03;99455.31;3587090;40;10026;-60
2021/06/20 08:09:14;;;;;;;;;7.50;7.50;;;;;28.20;54.18;99451.09;3587056;40;9989;-59
2021/06/20 08:11:41;;;;;;;;;9.00;9.00;;;;;28.29;53.79;99453.63;3587060;40;9986;-59
2021/06/20 08:14:09;;;;;;;;;7.00;5.00;;;;;27.09;56.10;99447.97;3586993;40;9809;-60
2021/06/20 08:16:36;;;;;;;;;7.75;4.50;;;;;27.07;54.74;99450.13;3587525;40;10014;-59
2021/06/20 08:19:04;;;;;;;;;8.25;7.50;;;;;27.46;54.26;99445.75;3587313;40;9885;-58
2021/06/20 08:21:31;;;;;;;;;8.00;5.50;;;;;27.44;53.29;99445.16;3587111;40;9853;-59
2021/06/20 08:23:59;;;;;;;;;6.50;6.25;;;;;27.70;53.24;99442.41;3593248;39;9787;-58
2021/06/20 08:26:26;;;;;;;;;7.50;6.00;;;;;28.27;52.30;99444.72;3586085;40;9841;-59
2021/06/20 08:28:54;;;;;;;;;7.25;6.75;;;;;28.07;51.16;99445.59;3587525;40;10055;-58
2021/06/20 08:31:21;;;;;;;;;8.75;7.25;;;;;28.48;51.55;99447.25;3589651;39;9816;-59
2021/06/20 08:33:48;;;;;;;;;9.75;9.00;;;;;27.84;52.87;99439.69;3586731;40;9741;-58
2021/06/20 08:36:16;;;;;;;;;8.00;8.00;;;;;28.40;50.77;99445.53;3589366;39;10011;-58
2021/06/20 08:38:43;;;;;;;;;8.25;6.25;;;;;28.37;50.52;99439.59;3597342;39;9969;-58
2021/06/20 08:41:16;;;;;;;;;9.25;9.00;;;;;28.05;51.59;99436.69;3590735;39;9764;-58
2021/06/20 08:43:44;;;;;;;;;11.50;8.00;;;;;28.93;49.90;99439.00;3589247;40;10002;-58
2021/06/20 08:46:13;;;;;;;;;7.75;6.25;;;;;29.07;49.70;99440.66;3590298;39;10001;-58
2021/06/20 08:48:41;;;;;;;;;6.00;6.00;;;;;28.90;45.64;99439.44;3586311;40;10236;-57
2021/06/20 08:51:09;;;;;;;;;7.75;6.75;;;;;28.65;50.02;99436.59;3590483;40;9832;-58
2021/06/20 08:53:36;;;;;;;;;6.25;6.00;;;;;29.38;47.19;99425.16;3587071;40;9931;-58
2021/06/20 08:56:04;;;;;;;;;5.75;5.75;;;;;29.40;48.40;99417.47;3590905;39;10028;-58
2021/06/20 08:58:35;;;;;;;;;7.50;6.25;;;;;28.95;47.68;99414.75;3586292;40;9832;-58
2021/06/20 09:01:06;;;;;;;;;7.50;5.75;;;;;29.21;47.69;99419.31;3586565;40;9859;-58
2021/06/20 09:03:45;;;;;;;;;6.75;6.75;;;;;28.87;50.22;99412.25;3587032;40;10042;-58
2021/06/20 09:06:21;;;;;;;;;7.00;6.75;;;;;28.83;49.25;99410.97;3587235;40;10010;-57
2021/06/20 09:08:52;;;;;;;;;6.75;5.75;;;;;29.07;47.30;99415.78;3586365;40;9802;-58
2021/06/20 09:11:33;;;;;;;;;5.75;5.75;;;;;28.52;47.84;99404.31;3594267;40;9858;-58
2021/06/20 09:14:12;;;;;;;;;8.75;7.00;;;;;29.42;47.00;99418.09;3586034;40;9733;-58
2021/06/20 09:16:54;;;;;;;;;6.00;5.00;;;;;29.53;44.28;99422.06;3588422;40;9937;-57
2021/06/20 09:19:33;;;;;;;;;6.75;5.75;;;;;29.65;47.49;99419.44;3586894;39;9839;-58
2021/06/20 09:22:05;;;;;;;;;6.75;6.75;;;;;29.44;47.98;99407.66;3587180;40;9761;-58
2021/06/20 09:24:32;;;;;;;;;6.25;6.25;;;;;28.92;47.75;99414.34;3586381;40;9929;-57
2021/06/20 09:27:01;;;;;;;;;5.75;5.75;;;;;29.37;49.02;99415.16;3584784;40;10718;-58
2021/06/20 09:29:40;;;;;;;;;7.25;6.50;;;;;30.07;46.84;99422.47;3588688;40;9841;-57
2021/06/20 09:32:10;;;;;;;;;5.75;5.00;;;;;30.20;45.84;99422.34;3586257;40;9890;-58
2021/06/20 09:34:51;;;;;;;;;5.50;5.50;;;;;29.09;46.24;99419.16;3585855;39;9974;-57
2021/06/20 09:37:21;;;;;;;;;6.25;6.25;;;;;29.45;44.70;99419.56;3585881;40;9809;-57
2021/06/20 09:39:48;;;;;;;;;5.75;5.75;;;;;29.06;44.84;99408.53;3585965;40;9780;-57
2021/06/20 09:42:16;;;;;;;;;6.00;6.00;;;;;29.51;43.66;99410.38;3586159;40;10435;-58
2021/06/20 09:44:53;;;;;;;;;5.75;5.25;;;;;29.96;43.20;99422.16;3591310;40;10020;-57
2021/06/20 09:47:24;;;;;;;;;5.75;5.75;;;;;30.18;43.01;99418.97;3591871;39;9938;-57
2021/06/20 09:49:55;;;;;;;;;7.25;5.50;;;;;29.31;45.77;99413.28;3588544;40;10145;-58
2021/06/20 09:52:40;;;;;;;;;6.50;6.50;;;;;30.11;46.20;99407.94;3586256;40;10479;-58
2021/06/20 09:55:13;;;;;;;;;8.25;7.00;;;;;29.95;45.72;99409.38;3585999;40;10027;-58
2021/06/20 09:57:47;;;;;;;;;8.25;5.25;;;;;30.48;44.55;99409.94;3586110;40;9923;-57
2021/06/20 10:00:15;;;;;;;;;6.50;4.75;;;;;29.59;45.27;99409.25;3585932;40;10525;-56
2021/06/20 10:02:44;;;;;;;;;6.50;6.50;;;;;29.78;46.46;99402.75;3585844;40;10076;-57
2021/06/20 10:05:12;;;;;;;;;8.00;5.50;;;;;28.90;46.84;99406.25;3585847;40;9896;-57
2021/06/20 10:07:40;;;;;;;;;5.75;5.75;;;;;28.72;47.99;99406.97;3585884;40;9759;-58
2021/06/20 10:10:10;;;;;;;;;7.00;6.00;;;;;29.20;46.74;99412.09;3585723;40;9836;-57
2021/06/20 10:12:37;;;;;;;;;7.50;5.75;;;;;28.83;47.71;99408.22;3585712;40;10010;-56
2021/06/20 10:15:13;;;;;;;;;9.00;6.00;;;;;28.56;49.33;99408.31;3585488;40;10006;-60
2021/06/20 10:17:45;;;;;;;;;7.25;7.25;;;;;28.49;48.49;99412.19;3585272;40;9840;-55
2021/06/20 10:20:15;;;;;;;;;7.75;7.00;;;;;28.50;50.02;99411.13;3587639;40;9739;-58
2021/06/20 10:22:46;;;;;;;;;6.50;5.25;;;;;28.34;49.45;99404.13;3585848;40;9859;-58
2021/06/20 10:25:43;;;;;;;;;6.00;6.00;;;;;28.34;49.68;99399.47;3589532;39;9804;-58
2021/06/20 10:28:16;;;;;;;;;7.75;6.75;;;;;28.52;48.06;99403.47;3587294;40;9804;-58
2021/06/20 10:30:46;;;;;;;;;7.50;7.25;;;;;28.29;48.80;99404.78;3587685;40;10011;-56
2021/06/20 10:33:21;;;;;;;;;6.75;6.75;;;;;29.20;46.58;99394.63;3590427;40;9798;-57
2021/06/20 10:36:09;;;;;;;;;5.50;5.50;;;;;29.81;45.12;99387.63;3587712;40;9737;-58
2021/06/20 10:38:45;;;;;;;;;7.00;7.00;;;;;29.45;46.45;99391.91;3588667;40;9872;-58
2021/06/20 10:41:26;;;;;;;;;7.00;7.00;;;;;29.81;45.39;99388.44;3587940;40;9765;-56
2021/06/20 10:43:59;;;;;;;;;6.75;6.75;;;;;29.26;45.22;99383.53;3595245;40;10096;-57
2021/06/20 10:46:29;;;;;;;;;6.00;6.00;;;;;29.26;44.79;99380.78;3590165;40;10026;-58
2021/06/20 10:48:58;;;;;;;;;5.50;5.50;;;;;29.28;44.53;99369.47;3589499;40;9856;-54
2021/06/20 10:51:25;;;;;;;;;6.75;5.25;;;;;29.29;44.44;99372.03;3586867;40;9893;-57
2021/06/20 10:53:53;;;;;;;;;5.75;5.00;;;;;28.86;43.71;99369.09;3589049;40;9997;-52
2021/06/20 10:56:40;;;;;;;;;5.50;4.75;;;;;29.53;42.87;99362.03;3589643;39;9791;-57
2021/06/20 10:59:08;;;;;;;;;6.00;6.00;;;;;30.08;41.73;99363.25;3588321;40;9924;-57
2021/06/20 11:01:43;;;;;;;;;8.00;6.25;;;;;30.63;41.37;99355.81;3590237;39;10022;-57
2021/06/20 11:04:11;;;;;;;;;5.75;5.00;;;;;30.89;41.34;99362.09;3594596;40;9775;-55
2021/06/20 11:06:38;;;;;;;;;6.75;6.75;;;;;30.09;43.10;99356.63;3586533;40;9745;-59
2021/06/20 11:09:08;;;;;;;;;5.25;5.25;;;;;30.30;42.73;99345.13;3587684;40;9973;-59
2021/06/20 11:11:57;;;;;;;;;4.75;4.75;;;;;29.98;44.65;99350.78;3587879;40;9874;-58
2021/06/20 11:14:25;;;;;;;;;7.00;6.25;;;;;29.98;43.37;99338.88;3588344;40;9793;-59
2021/06/20 11:16:52;;;;;;;;;6.00;6.00;;;;;30.27;44.93;99340.06;3594925;39;9761;-59
2021/06/20 11:19:25;;;;;;;;;5.25;5.25;;;;;30.92;42.71;99325.59;3587138;40;10023;-59
2021/06/20 11:22:01;;;;;;;;;8.25;8.00;;;;;30.88;44.15;99334.59;3588286;40;10049;-58
2021/06/20 11:24:35;;;;;;;;;6.50;6.50;;;;;30.66;41.51;99332.31;3590909;40;9986;-58
2021/06/20 11:27:18;;;;;;;;;7.00;7.00;;;;;30.80;42.17;99331.03;3587281;40;10448;-58
2021/06/20 11:29:52;;;;;;;;;7.50;6.00;;;;;30.68;43.44;99332.94;3592052;40;10144;-58
2021/06/20 11:32:24;;;;;;;;;5.00;5.00;;;;;31.22;41.95;99317.22;3591446;39;10219;-59
2021/06/20 11:35:02;;;;;;;;;5.75;5.00;;;;;30.97;43.23;99328.50;3589396;39;10141;-58
2021/06/20 11:37:32;;;;;;;;;8.50;6.00;;;;;31.33;43.13;99325.78;3591079;39;10299;-58